Main page
METAR-TAF:

METAR-TAF

Airports :

Noi Bai International Airport

Hanoi, Vietnam

latitude: 21-01N, longitude: 105-48E, elevation: 6 m

Current weather observation

The report was made 33 minutes ago, at 20:00 UTC
Wind 4 kt from the Northeast
Temperature 20°C
Humidity 94%
Pressure 1016 hPa
Visibility: 3700 m
Broken clouds at a height of 500 ft
mist

METAR: VVNB 152000Z 05004KT 3700 BR BKN005 20/19 Q1016 NOSIG

Time: 03:33 (20:33 UTC)

Forecast

The report was made 3 hours and 33 minutes ago, at 17:00 UTC
Forecast valid from 15 at 18 UTC to 16 at 18 UTC
Wind 6 kt from the East/Southeast
Visibility: 6000 m
Scattered clouds at a height of 1300 ft
Becoming
from 15 at 20 UTC to 15 at 21 UTC
Visibility: 2500 m
mist
Temporary
from 15 at 22 UTC to 16 at 01 UTC
Visibility: 0800 m
fog
Becoming
from 16 at 02 UTC to 16 at 03 UTC
Visibility: 6000 m

TAF: VVNB 151700Z 1518/1618 12006KT 6000 SCT013 BECMG 1520/1521 2500 BR TEMPO 1522/1601 0800 FG BECMG 1602/1603 6000 NSW

Weather observations and forecasts of more than 4000 airports (METAR and TAF reports).

The available stations are represented by yellow and red dots on the map.

Hover mouse over dot to see the name of the station.

Then click to see weather observations and forecasts.

To change the map : click on the green buttons with a black cross to zoom in, on the green button with a dash to zoom out, or on the green arrows for adjacent maps.


METAR-TAF: